createdAt,value
2024-05-09T00:00:39.873Z,7.57
2024-05-09T00:03:08.581Z,7.70
2024-05-09T00:05:36.903Z,7.57
2024-05-09T00:08:04.645Z,7.51
2024-05-09T00:10:36.532Z,7.45
2024-05-09T00:13:06.668Z,7.41
2024-05-09T00:15:34.059Z,7.30
2024-05-09T00:18:01.916Z,7.29
2024-05-09T00:20:37.298Z,7.40
2024-05-09T00:23:07.854Z,7.38
2024-05-09T00:25:35.564Z,7.27
2024-05-09T00:28:02.907Z,7.24
2024-05-09T00:30:34.518Z,7.20
2024-05-09T00:33:05.152Z,7.23
2024-05-09T00:35:33.101Z,7.15
2024-05-09T00:38:00.098Z,7.13
2024-05-09T00:40:37.627Z,7.50
2024-05-09T00:43:07.463Z,7.20
2024-05-09T00:45:35.126Z,7.04
2024-05-09T00:48:06.490Z,6.78
2024-05-09T00:50:37.569Z,6.93
2024-05-09T00:53:10.324Z,6.97
2024-05-09T00:55:37.861Z,6.90
2024-05-09T00:58:05.517Z,6.87
2024-05-09T01:00:38.811Z,6.86
2024-05-09T01:03:09.066Z,6.87
2024-05-09T01:05:39.060Z,6.90
2024-05-09T01:08:06.997Z,6.77
2024-05-09T01:10:35.501Z,6.68
2024-05-09T01:13:07.302Z,6.77
2024-05-09T01:15:35.699Z,6.83
2024-05-09T01:18:07.785Z,6.71
2024-05-09T01:20:41.975Z,6.69
2024-05-09T01:23:12.412Z,6.73
2024-05-09T01:25:39.981Z,6.77
2024-05-09T01:28:07.191Z,6.66
2024-05-09T01:30:36.365Z,6.60
2024-05-09T01:33:09.433Z,6.53
2024-05-09T01:35:39.230Z,6.57
2024-05-09T01:38:06.994Z,6.56
2024-05-09T01:40:38.566Z,6.61
2024-05-09T01:43:08.024Z,6.60
2024-05-09T01:45:35.196Z,6.56
2024-05-09T01:48:02.769Z,6.53
2024-05-09T01:50:38.028Z,6.50
2024-05-09T01:53:13.281Z,6.47
2024-05-09T01:55:40.763Z,6.40
2024-05-09T01:58:08.748Z,6.39
2024-05-09T02:00:40.634Z,6.39
2024-05-09T02:03:13.568Z,6.32
2024-05-09T02:05:43.534Z,6.38
2024-05-09T02:08:15.195Z,6.48
2024-05-09T02:10:42.429Z,6.46
2024-05-09T02:13:09.451Z,6.40
2024-05-09T02:15:36.359Z,6.39
2024-05-09T02:18:03.214Z,6.40
2024-05-09T02:20:35.942Z,6.33
2024-05-09T02:23:06.320Z,6.32
2024-05-09T02:25:33.718Z,6.26
2024-05-09T02:28:00.416Z,6.23
2024-05-09T02:30:37.796Z,6.26
2024-05-09T02:33:09.100Z,6.21
2024-05-09T02:35:37.063Z,6.16
2024-05-09T02:38:03.964Z,6.11
2024-05-09T02:40:36.785Z,6.04
2024-05-09T02:43:10.382Z,6.10
2024-05-09T02:45:38.738Z,6.10
2024-05-09T02:48:06.596Z,6.16
2024-05-09T02:50:38.386Z,6.28
2024-05-09T02:53:11.156Z,6.23
2024-05-09T02:55:38.852Z,6.27
2024-05-09T02:58:08.916Z,6.23
2024-05-09T03:00:39.942Z,6.24
2024-05-09T03:03:11.582Z,6.05
2024-05-09T03:05:40.990Z,6.13
2024-05-09T03:08:08.120Z,6.19
2024-05-09T03:10:37.528Z,6.16
2024-05-09T03:13:11.896Z,6.17
2024-05-09T03:15:39.615Z,6.15
2024-05-09T03:18:07.198Z,5.88
2024-05-09T03:20:35.991Z,6.01
2024-05-09T03:23:05.272Z,6.12
2024-05-09T03:25:32.499Z,6.12
2024-05-09T03:27:59.541Z,6.02
2024-05-09T03:30:38.607Z,5.95
2024-05-09T03:33:18.055Z,6.00
2024-05-09T03:35:46.705Z,5.90
2024-05-09T03:38:13.846Z,5.94
2024-05-09T03:40:50.761Z,5.88
2024-05-09T03:43:18.752Z,5.84
2024-05-09T03:45:48.720Z,5.89
2024-05-09T03:48:15.696Z,5.69
2024-05-09T03:50:42.753Z,5.83
2024-05-09T03:53:11.073Z,5.90
2024-05-09T03:55:38.036Z,5.89
2024-05-09T03:58:05.145Z,6.00
2024-05-09T04:00:37.876Z,5.89
2024-05-09T04:03:09.183Z,5.97
2024-05-09T04:05:40.021Z,6.02
2024-05-09T04:08:07.742Z,5.98
2024-05-09T04:10:35.384Z,6.01
2024-05-09T04:13:03.299Z,5.97
2024-05-09T04:15:30.942Z,6.08
2024-05-09T04:17:57.981Z,6.11
2024-05-09T04:20:35.797Z,6.07
2024-05-09T04:23:07.180Z,6.14
2024-05-09T04:25:35.064Z,6.24
2024-05-09T04:28:01.996Z,6.18
2024-05-09T04:30:37.517Z,6.31
2024-05-09T04:33:09.111Z,6.34
2024-05-09T04:35:38.202Z,6.37
2024-05-09T04:38:05.727Z,6.47
2024-05-09T04:40:35.751Z,6.57
2024-05-09T04:43:05.217Z,6.56
2024-05-09T04:45:32.339Z,6.63
2024-05-09T04:47:59.458Z,6.65
2024-05-09T04:50:35.384Z,6.74
2024-05-09T04:53:05.827Z,6.80
2024-05-09T04:55:35.876Z,6.88
2024-05-09T04:58:02.862Z,6.93
2024-05-09T05:00:35.910Z,7.02
2024-05-09T05:03:13.383Z,7.14
2024-05-09T05:05:43.905Z,7.21
2024-05-09T05:08:13.109Z,7.34
2024-05-09T05:10:40.714Z,7.51
2024-05-09T05:13:18.261Z,7.53
2024-05-09T05:15:46.911Z,7.74
2024-05-09T05:18:15.387Z,7.75
2024-05-09T05:20:43.165Z,8.01
2024-05-09T05:23:15.140Z,8.06
2024-05-09T05:25:43.262Z,8.21
2024-05-09T05:28:10.687Z,8.32
2024-05-09T05:30:38.752Z,8.48
2024-05-09T05:33:06.697Z,8.66
2024-05-09T05:35:35.276Z,8.83
2024-05-09T05:38:03.073Z,9.03
2024-05-09T05:40:36.602Z,9.04
2024-05-09T05:43:05.816Z,9.39
2024-05-09T05:45:32.852Z,9.67
2024-05-09T05:48:00.436Z,10.04
2024-05-09T05:50:34.940Z,10.33
2024-05-09T05:53:09.164Z,10.67
2024-05-09T05:55:40.686Z,10.82
2024-05-09T05:58:11.888Z,11.26
2024-05-09T06:00:40.531Z,11.33
2024-05-09T06:03:09.459Z,11.50
2024-05-09T06:05:38.870Z,11.78
2024-05-09T06:08:06.252Z,12.36
2024-05-09T06:10:38.336Z,12.50
2024-05-09T06:13:08.058Z,11.70
2024-05-09T06:15:34.936Z,11.51
2024-05-09T06:18:02.092Z,11.64
2024-05-09T06:20:35.382Z,12.14
2024-05-09T06:23:07.827Z,12.21
2024-05-09T06:25:35.807Z,12.18
2024-05-09T06:28:03.245Z,12.37
2024-05-09T06:30:37.977Z,12.36
2024-05-09T06:33:08.983Z,12.56
2024-05-09T06:35:36.794Z,12.92
2024-05-09T06:38:04.058Z,12.82
2024-05-09T06:40:37.303Z,13.04
2024-05-09T06:43:14.369Z,13.04
2024-05-09T06:45:41.717Z,13.11
2024-05-09T06:48:09.446Z,13.37
2024-05-09T06:50:38.516Z,13.68
2024-05-09T06:53:07.136Z,13.10
2024-05-09T06:55:34.117Z,13.32
2024-05-09T06:58:01.009Z,13.58
2024-05-09T07:00:35.477Z,13.48
2024-05-09T07:03:16.498Z,14.06
2024-05-09T07:05:46.247Z,14.20
2024-05-09T07:08:14.000Z,14.17
2024-05-09T07:10:41.263Z,14.17
2024-05-09T07:13:12.586Z,14.26
2024-05-09T07:15:40.538Z,14.71
2024-05-09T07:18:17.419Z,14.80
2024-05-09T07:20:46.152Z,14.75
2024-05-09T07:23:13.778Z,14.79
2024-05-09T07:25:41.609Z,14.82
2024-05-09T07:28:13.665Z,14.77
2024-05-09T07:30:40.591Z,14.77
2024-05-09T07:33:07.552Z,15.09
2024-05-09T07:35:34.875Z,15.04
2024-05-09T07:38:01.755Z,15.10
2024-05-09T07:40:35.078Z,14.97
2024-05-09T07:43:04.881Z,15.21
2024-05-09T07:45:48.150Z,15.31
2024-05-09T07:52:39.099Z,15.93
2024-05-09T07:53:47.096Z,15.78
2024-05-09T07:56:18.334Z,16.08
2024-05-09T07:58:46.260Z,15.76
2024-05-09T08:01:13.179Z,15.94
2024-05-09T08:03:40.152Z,16.05
2024-05-09T08:06:07.018Z,16.05
2024-05-09T08:08:33.731Z,16.29
2024-05-09T08:11:00.762Z,16.70
2024-05-09T08:13:27.499Z,16.85
2024-05-09T08:15:54.346Z,16.90
2024-05-09T08:18:21.254Z,17.14
2024-05-09T08:20:49.847Z,17.47
2024-05-09T08:23:16.797Z,17.43
2024-05-09T08:25:44.191Z,17.37
2024-05-09T08:28:11.780Z,17.39
2024-05-09T08:30:38.840Z,17.60
2024-05-09T08:33:06.930Z,17.92
2024-05-09T08:35:35.241Z,18.31
2024-05-09T08:38:06.950Z,18.65
2024-05-09T08:40:36.768Z,18.82
2024-05-09T08:43:10.279Z,18.77
2024-05-09T08:45:42.672Z,18.73
2024-05-09T08:48:12.679Z,18.46
2024-05-09T08:50:43.659Z,18.77
2024-05-09T08:53:11.190Z,18.53
2024-05-09T08:55:41.688Z,18.76
2024-05-09T08:58:19.370Z,19.00
2024-05-09T09:00:47.391Z,18.58
2024-05-09T09:03:19.221Z,18.32
2024-05-09T09:05:59.134Z,18.85
2024-05-09T09:08:26.497Z,18.22
2024-05-09T09:10:57.658Z,18.85
2024-05-09T09:13:25.557Z,19.66
2024-05-09T09:15:57.522Z,19.90
2024-05-09T09:18:30.265Z,19.30
2024-05-09T09:20:57.358Z,18.26
2024-05-09T09:23:25.257Z,18.47
2024-05-09T09:25:52.096Z,18.14
2024-05-09T09:28:22.678Z,18.67
2024-05-09T09:30:49.537Z,19.38
2024-05-09T09:33:18.546Z,19.57
2024-05-09T09:35:45.761Z,19.53
2024-05-09T09:38:18.239Z,19.94
2024-05-09T09:40:49.695Z,19.62
2024-05-09T09:43:26.495Z,18.80
2024-05-09T09:45:55.532Z,18.75
2024-05-09T09:48:23.242Z,18.01
2024-05-09T09:50:52.538Z,17.19
2024-05-09T09:53:19.735Z,18.59
2024-05-09T09:55:46.886Z,19.00
2024-05-09T09:58:17.197Z,18.79
2024-05-09T10:00:45.137Z,19.21
2024-05-09T10:03:12.150Z,18.73
2024-05-09T10:05:42.076Z,19.32
2024-05-09T10:08:12.259Z,19.82
2024-05-09T10:10:39.333Z,20.15
2024-05-09T10:13:07.740Z,19.13
2024-05-09T10:15:50.862Z,18.51
2024-05-09T10:18:22.785Z,18.83
2024-05-09T10:20:51.796Z,19.11
2024-05-09T10:23:32.705Z,18.77
2024-05-09T10:26:01.968Z,19.23
2024-05-09T10:28:30.476Z,19.47
2024-05-09T10:31:09.005Z,19.18
2024-05-09T10:33:47.944Z,18.35
2024-05-09T10:36:20.149Z,19.54
2024-05-09T10:38:48.502Z,20.62
2024-05-09T10:41:16.987Z,19.11
2024-05-09T10:43:43.825Z,19.42
2024-05-09T10:46:11.892Z,20.49
2024-05-09T10:48:42.724Z,19.68
2024-05-09T10:51:09.964Z,18.83
2024-05-09T10:53:43.565Z,18.71
2024-05-09T10:56:11.266Z,19.15
2024-05-09T10:58:39.027Z,18.61
2024-05-09T11:01:07.354Z,18.70
2024-05-09T11:03:35.536Z,19.85
2024-05-09T11:06:02.976Z,19.37
2024-05-09T11:08:33.285Z,18.52
2024-05-09T11:11:03.301Z,19.48
2024-05-09T11:13:33.260Z,19.11
2024-05-09T11:16:02.216Z,19.10
2024-05-09T11:18:35.516Z,18.72
2024-05-09T11:21:14.542Z,18.83
2024-05-09T11:23:46.431Z,18.86
2024-05-09T11:26:15.735Z,18.66
2024-05-09T11:28:47.062Z,19.01
2024-05-09T11:31:14.677Z,19.52
2024-05-09T11:33:50.823Z,19.13
2024-05-09T11:36:20.478Z,18.72
2024-05-09T11:38:48.155Z,19.01
2024-05-09T11:41:19.026Z,18.77
2024-05-09T11:43:49.732Z,18.96
2024-05-09T11:46:18.656Z,19.13
2024-05-09T11:48:51.206Z,19.15
2024-05-09T11:51:22.052Z,19.15
2024-05-09T11:53:50.175Z,19.14
2024-05-09T11:56:17.602Z,19.02
2024-05-09T11:58:44.425Z,18.47
2024-05-09T12:01:11.765Z,18.57
2024-05-09T12:03:39.022Z,18.74
2024-05-09T12:06:06.970Z,18.79
2024-05-09T12:08:34.387Z,19.09
2024-05-09T12:11:01.600Z,18.95
2024-05-09T12:13:28.809Z,19.24
2024-05-09T12:15:58.340Z,19.39
2024-05-09T12:18:25.898Z,19.14
2024-05-09T12:20:52.882Z,18.76
2024-05-09T12:23:19.612Z,18.63
2024-05-09T12:25:46.396Z,19.17
2024-05-09T12:28:13.273Z,19.24
2024-05-09T12:30:41.568Z,19.53
2024-05-09T12:33:11.819Z,19.72
2024-05-09T12:35:39.650Z,19.62
2024-05-09T12:38:06.400Z,19.48
2024-05-09T12:40:36.946Z,19.55
2024-05-09T12:43:10.315Z,19.90
2024-05-09T12:45:38.550Z,19.56
2024-05-09T12:48:08.497Z,19.26
2024-05-09T12:50:36.434Z,19.15
2024-05-09T12:53:04.711Z,18.78
2024-05-09T12:55:40.436Z,18.28
2024-05-09T12:58:15.968Z,18.28
2024-05-09T13:00:43.781Z,18.91
2024-05-09T13:03:10.783Z,18.99
2024-05-09T13:05:38.020Z,19.13
2024-05-09T13:08:05.582Z,19.47
2024-05-09T13:10:33.579Z,19.34
2024-05-09T13:13:02.203Z,19.51
2024-05-09T13:15:35.051Z,19.22
2024-05-09T13:18:03.925Z,19.13
2024-05-09T13:20:34.499Z,18.67
2024-05-09T13:23:05.499Z,19.21
2024-05-09T13:25:35.109Z,19.57
2024-05-09T13:28:03.998Z,19.56
2024-05-09T13:30:39.577Z,19.33
2024-05-09T13:33:11.239Z,19.38
2024-05-09T13:35:41.286Z,19.13
2024-05-09T13:38:12.348Z,19.45
2024-05-09T13:40:39.345Z,19.60
2024-05-09T13:43:06.499Z,19.61
2024-05-09T13:45:34.380Z,19.48
2024-05-09T13:48:06.712Z,18.99
2024-05-09T13:50:36.273Z,19.32
2024-05-09T13:53:06.581Z,19.19
2024-05-09T13:55:35.371Z,19.72
2024-05-09T13:58:02.991Z,19.87
2024-05-09T14:00:42.632Z,19.46
2024-05-09T14:03:16.479Z,19.47
2024-05-09T14:05:45.577Z,19.44
2024-05-09T14:08:13.687Z,19.62
2024-05-09T14:10:44.455Z,19.73
2024-05-09T14:13:12.528Z,19.76
2024-05-09T14:15:40.410Z,19.42
2024-05-09T14:18:13.755Z,19.48
2024-05-09T14:20:43.281Z,19.44
2024-05-09T14:23:11.353Z,19.63
2024-05-09T14:25:42.830Z,19.79
2024-05-09T14:28:12.700Z,19.56
2024-05-09T14:30:43.059Z,19.59
2024-05-09T14:33:11.841Z,19.69
2024-05-09T14:35:41.308Z,19.69
2024-05-09T14:38:10.394Z,19.83
2024-05-09T14:40:42.945Z,19.57
2024-05-09T14:43:13.804Z,19.64
2024-05-09T14:45:43.299Z,19.71
2024-05-09T14:48:12.641Z,19.61
2024-05-09T14:50:41.180Z,19.42
2024-05-09T14:53:10.565Z,19.53
2024-05-09T14:55:42.596Z,19.74
2024-05-09T14:58:10.925Z,19.30
2024-05-09T15:00:46.475Z,19.33
2024-05-09T15:03:17.771Z,19.47
2024-05-09T15:05:45.495Z,19.64
2024-05-09T15:08:12.441Z,19.84
2024-05-09T15:10:39.431Z,19.90
2024-05-09T15:13:08.202Z,20.04
2024-05-09T15:15:37.159Z,19.90
2024-05-09T15:18:05.582Z,20.10
2024-05-09T15:20:36.166Z,19.50
2024-05-09T15:23:05.152Z,19.84
2024-05-09T15:25:36.301Z,19.63
2024-05-09T15:28:04.293Z,19.23
2024-05-09T15:30:34.356Z,19.44
2024-05-09T15:33:06.406Z,19.71
2024-05-09T15:35:34.368Z,19.88
2024-05-09T15:38:03.356Z,20.02
2024-05-09T15:40:37.740Z,19.70
2024-05-09T15:43:09.149Z,19.35
2024-05-09T15:45:37.316Z,19.66
2024-05-09T15:48:05.527Z,19.87
2024-05-09T15:50:38.062Z,19.99
2024-05-09T15:53:09.376Z,19.83
2024-05-09T15:55:37.059Z,19.87
2024-05-09T15:58:05.490Z,19.64
2024-05-09T16:00:38.567Z,19.57
2024-05-09T16:03:13.228Z,19.94
2024-05-09T16:05:42.061Z,19.47
2024-05-09T16:08:09.578Z,19.57
2024-05-09T16:10:39.914Z,19.20
2024-05-09T16:13:08.476Z,18.78
2024-05-09T16:15:35.675Z,18.62
2024-05-09T16:18:02.793Z,18.60
2024-05-09T16:20:38.123Z,18.56
2024-05-09T16:23:08.294Z,18.82
2024-05-09T16:25:36.215Z,19.15
2024-05-09T16:28:07.072Z,19.25
2024-05-09T16:30:36.797Z,19.31
2024-05-09T16:33:05.311Z,19.35
2024-05-09T16:35:33.058Z,19.45
2024-05-09T16:38:02.376Z,19.52
2024-05-09T16:40:36.611Z,19.60
2024-05-09T16:43:07.170Z,19.52
2024-05-09T16:45:34.426Z,19.77
2024-05-09T16:48:01.987Z,19.94
2024-05-09T16:50:33.709Z,19.68
2024-05-09T16:53:06.082Z,19.29
2024-05-09T16:55:33.850Z,19.23
2024-05-09T16:58:01.888Z,19.13
2024-05-09T17:00:39.084Z,19.47
2024-05-09T17:03:11.552Z,19.66
2024-05-09T17:05:39.441Z,19.47
2024-05-09T17:08:07.224Z,19.44
2024-05-09T17:10:35.816Z,19.34
2024-05-09T17:13:05.125Z,19.09
2024-05-09T17:15:33.759Z,19.14
2024-05-09T17:18:01.525Z,18.97
2024-05-09T17:20:33.671Z,18.76
2024-05-09T17:23:06.520Z,18.71
2024-05-09T17:25:35.715Z,18.61
2024-05-09T17:28:07.647Z,18.59
2024-05-09T17:30:38.258Z,18.69
2024-05-09T17:33:08.450Z,18.67
2024-05-09T17:35:36.604Z,18.53
2024-05-09T17:38:04.913Z,18.52
2024-05-09T17:40:35.737Z,18.38
2024-05-09T17:43:05.384Z,18.19
2024-05-09T17:45:33.019Z,17.99
2024-05-09T17:48:01.496Z,17.86
2024-05-09T17:50:35.425Z,17.70
2024-05-09T17:53:07.451Z,17.25
2024-05-09T17:55:35.539Z,17.35
2024-05-09T17:58:03.460Z,16.75
2024-05-09T18:00:37.802Z,15.57
2024-05-09T18:03:08.947Z,15.48
2024-05-09T18:05:37.064Z,15.70
2024-05-09T18:08:05.472Z,15.89
2024-05-09T18:10:36.887Z,15.80
2024-05-09T18:13:10.281Z,15.78
2024-05-09T18:15:37.585Z,15.61
2024-05-09T18:18:05.743Z,15.42
2024-05-09T18:20:41.578Z,15.32
2024-05-09T18:23:13.268Z,15.24
2024-05-09T18:25:40.579Z,14.86
2024-05-09T18:28:08.154Z,14.79
2024-05-09T18:30:36.949Z,14.49
2024-05-09T18:33:07.030Z,14.42
2024-05-09T18:35:35.495Z,14.48
2024-05-09T18:38:02.802Z,14.28
2024-05-09T18:40:34.422Z,14.17
2024-05-09T18:43:06.146Z,14.13
2024-05-09T18:45:34.571Z,14.17
2024-05-09T18:48:01.649Z,14.15
2024-05-09T18:50:34.932Z,14.13
2024-05-09T18:53:10.364Z,13.44
2024-05-09T18:55:38.013Z,13.57
2024-05-09T18:58:05.313Z,13.65
2024-05-09T19:00:36.277Z,13.64
2024-05-09T19:03:11.790Z,13.49
2024-05-09T19:05:42.765Z,13.50
2024-05-09T19:08:10.615Z,13.24
2024-05-09T19:10:39.288Z,12.96
2024-05-09T19:13:10.909Z,12.72
2024-05-09T19:15:40.690Z,12.67
2024-05-09T19:18:08.315Z,12.59
2024-05-09T19:20:36.652Z,12.60
2024-05-09T19:23:06.042Z,12.54
2024-05-09T19:25:33.524Z,12.45
2024-05-09T19:28:01.214Z,12.42
2024-05-09T19:30:37.628Z,12.46
2024-05-09T19:33:08.759Z,12.49
2024-05-09T19:35:36.021Z,12.35
2024-05-09T19:38:03.057Z,12.20
2024-05-09T19:40:32.420Z,12.15
2024-05-09T19:43:02.617Z,12.03
2024-05-09T19:45:30.275Z,11.33
2024-05-09T19:47:57.351Z,11.22
2024-05-09T19:50:32.413Z,11.60
2024-05-09T19:53:07.369Z,11.71
2024-05-09T19:55:34.993Z,11.79
2024-05-09T19:58:05.096Z,11.80
2024-05-09T20:00:36.671Z,11.55
2024-05-09T20:03:05.899Z,11.48
2024-05-09T20:05:33.423Z,11.80
2024-05-09T20:08:00.411Z,11.79
2024-05-09T20:10:32.126Z,11.90
2024-05-09T20:13:01.448Z,11.83
2024-05-09T20:15:28.307Z,11.65
2024-05-09T20:17:55.419Z,11.63
2024-05-09T20:22:52.002Z,11.58
2024-05-09T20:25:18.934Z,11.71
2024-05-09T20:27:45.893Z,11.75
2024-05-09T20:30:17.256Z,11.69
2024-05-09T20:32:51.583Z,11.89
2024-05-09T20:35:18.412Z,11.99
2024-05-09T20:37:45.179Z,11.97
2024-05-09T20:40:18.494Z,12.12
2024-05-09T20:42:52.250Z,12.16
2024-05-09T20:45:19.212Z,12.13
2024-05-09T20:47:46.082Z,12.14
2024-05-09T20:50:23.086Z,12.18
2024-05-09T20:52:55.531Z,12.05
2024-05-09T20:55:22.385Z,12.03
2024-05-09T20:57:49.306Z,11.96
2024-05-09T21:00:19.198Z,11.81
2024-05-09T21:02:52.185Z,11.85
2024-05-09T21:05:19.530Z,11.85
2024-05-09T21:07:46.469Z,11.85
2024-05-09T21:10:19.373Z,11.91
2024-05-09T21:12:49.635Z,11.83
2024-05-09T21:15:16.427Z,11.88
2024-05-09T21:17:43.475Z,11.88
2024-05-09T21:20:17.045Z,11.85
2024-05-09T21:22:47.195Z,11.94
2024-05-09T21:25:14.419Z,11.82
2024-05-09T21:27:41.384Z,11.81
2024-05-09T21:30:13.269Z,11.76
2024-05-09T21:32:45.817Z,11.71
2024-05-09T21:35:12.866Z,11.72
2024-05-09T21:37:39.623Z,11.77
2024-05-09T21:40:13.378Z,11.80
2024-05-09T21:42:40.831Z,11.76
2024-05-09T21:45:08.054Z,11.68
2024-05-09T21:47:35.465Z,11.68
2024-05-09T21:50:02.952Z,11.52
2024-05-09T21:52:29.879Z,11.36
2024-05-09T21:54:56.733Z,11.23
2024-05-09T21:57:23.655Z,11.15
2024-05-09T21:59:50.417Z,11.40
2024-05-09T22:02:17.234Z,11.06
2024-05-09T22:04:44.201Z,10.94
2024-05-09T22:07:11.358Z,10.88
2024-05-09T22:09:40.252Z,10.84
2024-05-09T22:12:07.278Z,10.73
2024-05-09T22:14:34.071Z,10.72
2024-05-09T22:17:00.813Z,10.69
2024-05-09T22:19:27.647Z,10.63
2024-05-09T22:21:55.500Z,10.49
2024-05-09T22:24:22.321Z,10.38
2024-05-09T22:26:52.143Z,10.36
2024-05-09T22:29:18.909Z,10.24
2024-05-09T22:31:45.559Z,10.21
2024-05-09T22:34:12.463Z,10.11
2024-05-09T22:36:39.505Z,9.91
2024-05-09T22:39:06.740Z,9.99
2024-05-09T22:41:33.516Z,9.94
2024-05-09T22:44:01.949Z,9.84
2024-05-09T22:46:28.842Z,9.90
2024-05-09T22:48:55.751Z,9.90
2024-05-09T22:51:22.527Z,9.71
2024-05-09T22:53:49.337Z,9.78
2024-05-09T22:56:25.903Z,9.80
2024-05-09T22:58:52.718Z,9.65
2024-05-09T23:01:19.463Z,9.43
2024-05-09T23:03:47.568Z,9.60
2024-05-09T23:06:14.856Z,9.86
2024-05-09T23:08:41.610Z,9.66
2024-05-09T23:11:09.938Z,9.30
2024-05-09T23:13:36.772Z,8.92
2024-05-09T23:16:03.831Z,8.93
2024-05-09T23:18:30.654Z,8.76
2024-05-09T23:20:57.364Z,8.88
2024-05-09T23:23:24.111Z,9.16
2024-05-09T23:25:50.754Z,9.09
2024-05-09T23:28:17.590Z,9.22
2024-05-09T23:30:44.318Z,9.21
2024-05-09T23:33:13.089Z,9.28
2024-05-09T23:35:44.534Z,9.03
2024-05-09T23:38:11.903Z,8.98
2024-05-09T23:40:40.942Z,8.98
2024-05-09T23:43:10.907Z,9.01
2024-05-09T23:45:38.609Z,9.17
2024-05-09T23:48:06.583Z,9.28
2024-05-09T23:50:36.714Z,9.33
2024-05-09T23:53:07.564Z,9.30
2024-05-09T23:55:35.574Z,9.42
2024-05-09T23:58:02.934Z,9.23
